sensor_id;sensor_type;location;lat;lon;timestamp;P1;durP1;ratioP1;P2;durP2;ratioP2
29380;SDS011;16364;52.490;13.326;2023-05-27T00:02:21;17.00;;;3.17;;
29380;SDS011;16364;52.490;13.326;2023-05-27T00:04:46;7.87;;;2.87;;
29380;SDS011;16364;52.490;13.326;2023-05-27T00:07:11;6.60;;;2.10;;
29380;SDS011;16364;52.490;13.326;2023-05-27T00:09:37;9.30;;;2.43;;
29380;SDS011;16364;52.490;13.326;2023-05-27T00:12:03;15.60;;;2.97;;
29380;SDS011;16364;52.490;13.326;2023-05-27T00:14:28;7.43;;;2.30;;
29380;SDS011;16364;52.490;13.326;2023-05-27T00:16:54;4.10;;;2.50;;
29380;SDS011;16364;52.490;13.326;2023-05-27T00:19:20;6.90;;;3.13;;
29380;SDS011;16364;52.490;13.326;2023-05-27T00:21:46;5.30;;;2.63;;
29380;SDS011;16364;52.490;13.326;2023-05-27T00:24:12;6.33;;;2.77;;
29380;SDS011;16364;52.490;13.326;2023-05-27T00:26:37;9.33;;;3.20;;
29380;SDS011;16364;52.490;13.326;2023-05-27T00:29:04;4.83;;;2.30;;
29380;SDS011;16364;52.490;13.326;2023-05-27T00:31:30;12.27;;;2.83;;
29380;SDS011;16364;52.490;13.326;2023-05-27T00:33:59;8.37;;;2.97;;
29380;SDS011;16364;52.490;13.326;2023-05-27T00:36:25;11.10;;;3.10;;
29380;SDS011;16364;52.490;13.326;2023-05-27T00:38:51;7.63;;;2.73;;
29380;SDS011;16364;52.490;13.326;2023-05-27T00:41:17;9.13;;;2.20;;
29380;SDS011;16364;52.490;13.326;2023-05-27T00:43:43;6.27;;;2.43;;
29380;SDS011;16364;52.490;13.326;2023-05-27T00:46:08;7.67;;;2.40;;
29380;SDS011;16364;52.490;13.326;2023-05-27T00:48:34;13.10;;;2.73;;
29380;SDS011;16364;52.490;13.326;2023-05-27T00:51:00;3.53;;;2.40;;
29380;SDS011;16364;52.490;13.326;2023-05-27T00:53:26;8.77;;;2.80;;
29380;SDS011;16364;52.490;13.326;2023-05-27T00:55:54;7.33;;;2.60;;
29380;SDS011;16364;52.490;13.326;2023-05-27T00:58:22;4.67;;;2.50;;
29380;SDS011;16364;52.490;13.326;2023-05-27T01:00:48;9.83;;;3.20;;
29380;SDS011;16364;52.490;13.326;2023-05-27T01:03:13;5.90;;;2.60;;
29380;SDS011;16364;52.490;13.326;2023-05-27T01:05:40;6.20;;;2.80;;
29380;SDS011;16364;52.490;13.326;2023-05-27T01:08:16;9.40;;;3.80;;
29380;SDS011;16364;52.490;13.326;2023-05-27T01:10:45;5.03;;;2.47;;
29380;SDS011;16364;52.490;13.326;2023-05-27T01:13:30;8.30;;;2.40;;
29380;SDS011;16364;52.490;13.326;2023-05-27T01:15:56;5.53;;;3.17;;
29380;SDS011;16364;52.490;13.326;2023-05-27T01:18:22;7.03;;;2.63;;
29380;SDS011;16364;52.490;13.326;2023-05-27T01:20:51;7.13;;;2.40;;
29380;SDS011;16364;52.490;13.326;2023-05-27T01:23:17;12.43;;;2.80;;
29380;SDS011;16364;52.490;13.326;2023-05-27T01:25:43;9.67;;;2.90;;
29380;SDS011;16364;52.490;13.326;2023-05-27T01:28:08;7.50;;;2.50;;
29380;SDS011;16364;52.490;13.326;2023-05-27T01:30:33;5.20;;;2.90;;
29380;SDS011;16364;52.490;13.326;2023-05-27T01:33:00;7.17;;;2.90;;
29380;SDS011;16364;52.490;13.326;2023-05-27T01:35:33;2.80;;;2.50;;
29380;SDS011;16364;52.490;13.326;2023-05-27T01:38:01;6.63;;;2.77;;
29380;SDS011;16364;52.490;13.326;2023-05-27T01:40:28;6.70;;;2.50;;
29380;SDS011;16364;52.490;13.326;2023-05-27T01:42:54;5.27;;;2.30;;
29380;SDS011;16364;52.490;13.326;2023-05-27T01:45:22;2.27;;;2.00;;
29380;SDS011;16364;52.490;13.326;2023-05-27T01:47:47;6.37;;;2.50;;
29380;SDS011;16364;52.490;13.326;2023-05-27T01:50:12;8.73;;;2.80;;
29380;SDS011;16364;52.490;13.326;2023-05-27T01:52:38;3.93;;;2.23;;
29380;SDS011;16364;52.490;13.326;2023-05-27T01:55:03;5.10;;;2.57;;
29380;SDS011;16364;52.490;13.326;2023-05-27T01:57:30;5.17;;;2.50;;
29380;SDS011;16364;52.490;13.326;2023-05-27T01:59:55;6.87;;;3.10;;
29380;SDS011;16364;52.490;13.326;2023-05-27T02:02:21;10.70;;;2.77;;
29380;SDS011;16364;52.490;13.326;2023-05-27T02:04:47;8.40;;;2.80;;
29380;SDS011;16364;52.490;13.326;2023-05-27T02:07:13;8.73;;;3.90;;
29380;SDS011;16364;52.490;13.326;2023-05-27T02:09:38;7.93;;;2.73;;
29380;SDS011;16364;52.490;13.326;2023-05-27T02:12:03;6.70;;;2.90;;
29380;SDS011;16364;52.490;13.326;2023-05-27T02:14:31;4.93;;;3.00;;
29380;SDS011;16364;52.490;13.326;2023-05-27T02:16:56;6.83;;;3.37;;
29380;SDS011;16364;52.490;13.326;2023-05-27T02:19:23;8.43;;;3.07;;
29380;SDS011;16364;52.490;13.326;2023-05-27T02:21:49;5.87;;;3.40;;
29380;SDS011;16364;52.490;13.326;2023-05-27T02:24:15;11.23;;;2.70;;
29380;SDS011;16364;52.490;13.326;2023-05-27T02:26:40;6.50;;;3.07;;
29380;SDS011;16364;52.490;13.326;2023-05-27T02:29:05;12.63;;;2.93;;
29380;SDS011;16364;52.490;13.326;2023-05-27T02:31:30;7.77;;;3.07;;
29380;SDS011;16364;52.490;13.326;2023-05-27T02:33:56;7.47;;;3.53;;
29380;SDS011;16364;52.490;13.326;2023-05-27T02:36:21;7.13;;;4.37;;
29380;SDS011;16364;52.490;13.326;2023-05-27T02:38:47;9.17;;;3.50;;
29380;SDS011;16364;52.490;13.326;2023-05-27T02:41:14;12.53;;;2.83;;
29380;SDS011;16364;52.490;13.326;2023-05-27T02:43:39;7.10;;;3.07;;
29380;SDS011;16364;52.490;13.326;2023-05-27T02:46:05;10.63;;;3.50;;
29380;SDS011;16364;52.490;13.326;2023-05-27T02:48:31;9.47;;;3.40;;
29380;SDS011;16364;52.490;13.326;2023-05-27T02:50:57;8.90;;;3.70;;
29380;SDS011;16364;52.490;13.326;2023-05-27T02:53:22;7.40;;;2.43;;
29380;SDS011;16364;52.490;13.326;2023-05-27T02:55:49;11.77;;;3.40;;
29380;SDS011;16364;52.490;13.326;2023-05-27T02:58:14;4.33;;;3.67;;
29380;SDS011;16364;52.490;13.326;2023-05-27T03:00:40;10.60;;;3.20;;
29380;SDS011;16364;52.490;13.326;2023-05-27T03:03:05;9.67;;;3.90;;
29380;SDS011;16364;52.490;13.326;2023-05-27T03:05:32;6.93;;;2.90;;
29380;SDS011;16364;52.490;13.326;2023-05-27T03:07:58;10.60;;;3.07;;
29380;SDS011;16364;52.490;13.326;2023-05-27T03:10:25;9.23;;;3.40;;
29380;SDS011;16364;52.490;13.326;2023-05-27T03:12:51;7.40;;;2.80;;
29380;SDS011;16364;52.490;13.326;2023-05-27T03:15:16;13.17;;;3.50;;
29380;SDS011;16364;52.490;13.326;2023-05-27T03:17:41;8.23;;;3.07;;
29380;SDS011;16364;52.490;13.326;2023-05-27T03:20:07;7.03;;;3.30;;
29380;SDS011;16364;52.490;13.326;2023-05-27T03:22:34;9.10;;;3.27;;
29380;SDS011;16364;52.490;13.326;2023-05-27T03:25:00;10.90;;;3.20;;
29380;SDS011;16364;52.490;13.326;2023-05-27T03:27:26;5.87;;;3.60;;
29380;SDS011;16364;52.490;13.326;2023-05-27T03:29:53;9.27;;;4.00;;
29380;SDS011;16364;52.490;13.326;2023-05-27T03:32:18;8.70;;;3.20;;
29380;SDS011;16364;52.490;13.326;2023-05-27T03:34:45;8.77;;;4.20;;
29380;SDS011;16364;52.490;13.326;2023-05-27T03:37:10;8.63;;;4.00;;
29380;SDS011;16364;52.490;13.326;2023-05-27T03:39:36;12.13;;;4.60;;
29380;SDS011;16364;52.490;13.326;2023-05-27T03:42:02;8.67;;;3.00;;
29380;SDS011;16364;52.490;13.326;2023-05-27T03:44:27;14.97;;;4.27;;
29380;SDS011;16364;52.490;13.326;2023-05-27T03:46:54;11.13;;;3.17;;
29380;SDS011;16364;52.490;13.326;2023-05-27T03:49:20;6.87;;;3.43;;
29380;SDS011;16364;52.490;13.326;2023-05-27T03:51:46;12.03;;;4.97;;
29380;SDS011;16364;52.490;13.326;2023-05-27T03:54:11;9.03;;;4.30;;
29380;SDS011;16364;52.490;13.326;2023-05-27T03:56:37;12.87;;;3.90;;
29380;SDS011;16364;52.490;13.326;2023-05-27T03:59:02;8.93;;;3.90;;
29380;SDS011;16364;52.490;13.326;2023-05-27T04:01:27;13.10;;;4.20;;
29380;SDS011;16364;52.490;13.326;2023-05-27T04:03:52;5.70;;;3.60;;
29380;SDS011;16364;52.490;13.326;2023-05-27T04:06:18;10.77;;;3.30;;
29380;SDS011;16364;52.490;13.326;2023-05-27T04:08:43;11.27;;;3.50;;
29380;SDS011;16364;52.490;13.326;2023-05-27T04:11:10;6.93;;;3.33;;
29380;SDS011;16364;52.490;13.326;2023-05-27T04:13:37;8.33;;;3.57;;
29380;SDS011;16364;52.490;13.326;2023-05-27T04:16:04;10.43;;;3.57;;
29380;SDS011;16364;52.490;13.326;2023-05-27T04:18:29;8.03;;;3.43;;
29380;SDS011;16364;52.490;13.326;2023-05-27T04:20:54;7.80;;;3.93;;
29380;SDS011;16364;52.490;13.326;2023-05-27T04:23:20;7.60;;;3.20;;
29380;SDS011;16364;52.490;13.326;2023-05-27T04:25:45;4.77;;;3.00;;
29380;SDS011;16364;52.490;13.326;2023-05-27T04:28:12;9.23;;;3.60;;
29380;SDS011;16364;52.490;13.326;2023-05-27T04:30:38;6.27;;;3.97;;
29380;SDS011;16364;52.490;13.326;2023-05-27T04:33:05;10.10;;;3.83;;
29380;SDS011;16364;52.490;13.326;2023-05-27T04:35:30;8.87;;;3.07;;
29380;SDS011;16364;52.490;13.326;2023-05-27T04:37:56;5.77;;;3.00;;
29380;SDS011;16364;52.490;13.326;2023-05-27T04:40:21;9.13;;;3.80;;
29380;SDS011;16364;52.490;13.326;2023-05-27T04:42:46;8.37;;;3.30;;
29380;SDS011;16364;52.490;13.326;2023-05-27T04:45:12;5.33;;;3.13;;
29380;SDS011;16364;52.490;13.326;2023-05-27T04:47:37;10.90;;;4.57;;
29380;SDS011;16364;52.490;13.326;2023-05-27T04:50:03;4.53;;;2.80;;
29380;SDS011;16364;52.490;13.326;2023-05-27T04:52:29;9.40;;;3.30;;
29380;SDS011;16364;52.490;13.326;2023-05-27T04:54:54;13.10;;;4.10;;
29380;SDS011;16364;52.490;13.326;2023-05-27T04:57:22;4.50;;;3.43;;
29380;SDS011;16364;52.490;13.326;2023-05-27T04:59:47;6.13;;;3.40;;
29380;SDS011;16364;52.490;13.326;2023-05-27T05:02:33;8.90;;;3.03;;
29380;SDS011;16364;52.490;13.326;2023-05-27T05:05:09;12.80;;;4.40;;
29380;SDS011;16364;52.490;13.326;2023-05-27T05:07:36;9.93;;;3.67;;
29380;SDS011;16364;52.490;13.326;2023-05-27T05:10:07;7.57;;;2.70;;
29380;SDS011;16364;52.490;13.326;2023-05-27T05:12:33;5.80;;;3.33;;
29380;SDS011;16364;52.490;13.326;2023-05-27T05:15:00;4.97;;;3.23;;
29380;SDS011;16364;52.490;13.326;2023-05-27T05:17:25;4.13;;;3.00;;
29380;SDS011;16364;52.490;13.326;2023-05-27T05:19:52;7.73;;;3.60;;
29380;SDS011;16364;52.490;13.326;2023-05-27T05:22:17;13.50;;;3.50;;
29380;SDS011;16364;52.490;13.326;2023-05-27T05:24:51;7.97;;;2.77;;
29380;SDS011;16364;52.490;13.326;2023-05-27T05:27:16;7.63;;;3.03;;
29380;SDS011;16364;52.490;13.326;2023-05-27T05:29:41;6.60;;;3.33;;
29380;SDS011;16364;52.490;13.326;2023-05-27T05:32:07;7.93;;;3.23;;
29380;SDS011;16364;52.490;13.326;2023-05-27T05:34:33;8.93;;;2.20;;
29380;SDS011;16364;52.490;13.326;2023-05-27T05:36:59;6.93;;;2.60;;
29380;SDS011;16364;52.490;13.326;2023-05-27T05:39:24;4.77;;;2.90;;
29380;SDS011;16364;52.490;13.326;2023-05-27T05:41:49;6.60;;;3.03;;
29380;SDS011;16364;52.490;13.326;2023-05-27T05:44:15;6.90;;;2.97;;
29380;SDS011;16364;52.490;13.326;2023-05-27T05:46:41;5.90;;;2.53;;
29380;SDS011;16364;52.490;13.326;2023-05-27T05:49:07;6.50;;;2.87;;
29380;SDS011;16364;52.490;13.326;2023-05-27T05:51:32;5.37;;;3.07;;
29380;SDS011;16364;52.490;13.326;2023-05-27T05:53:57;5.90;;;2.43;;
29380;SDS011;16364;52.490;13.326;2023-05-27T05:56:25;5.23;;;2.10;;
29380;SDS011;16364;52.490;13.326;2023-05-27T05:58:53;3.57;;;2.07;;
29380;SDS011;16364;52.490;13.326;2023-05-27T06:01:29;2.30;;;1.80;;
29380;SDS011;16364;52.490;13.326;2023-05-27T06:04:09;4.10;;;1.80;;
29380;SDS011;16364;52.490;13.326;2023-05-27T06:06:34;5.60;;;2.20;;
29380;SDS011;16364;52.490;13.326;2023-05-27T06:09:00;5.73;;;1.90;;
29380;SDS011;16364;52.490;13.326;2023-05-27T06:11:25;2.63;;;1.50;;
29380;SDS011;16364;52.490;13.326;2023-05-27T06:13:51;4.60;;;1.90;;
29380;SDS011;16364;52.490;13.326;2023-05-27T06:16:18;3.57;;;1.80;;
29380;SDS011;16364;52.490;13.326;2023-05-27T06:18:43;2.50;;;1.60;;
29380;SDS011;16364;52.490;13.326;2023-05-27T06:21:11;4.57;;;1.80;;
29380;SDS011;16364;52.490;13.326;2023-05-27T06:23:36;3.83;;;1.53;;
29380;SDS011;16364;52.490;13.326;2023-05-27T06:26:02;4.30;;;1.70;;
29380;SDS011;16364;52.490;13.326;2023-05-27T06:28:27;5.27;;;1.50;;
29380;SDS011;16364;52.490;13.326;2023-05-27T06:30:52;2.83;;;1.50;;
29380;SDS011;16364;52.490;13.326;2023-05-27T06:33:17;7.57;;;1.20;;
29380;SDS011;16364;52.490;13.326;2023-05-27T06:35:43;4.70;;;1.67;;
29380;SDS011;16364;52.490;13.326;2023-05-27T06:38:09;2.70;;;2.13;;
29380;SDS011;16364;52.490;13.326;2023-05-27T06:40:34;2.47;;;1.50;;
29380;SDS011;16364;52.490;13.326;2023-05-27T06:42:59;2.67;;;1.30;;
29380;SDS011;16364;52.490;13.326;2023-05-27T06:45:25;2.33;;;1.70;;
29380;SDS011;16364;52.490;13.326;2023-05-27T06:47:51;2.40;;;1.47;;
29380;SDS011;16364;52.490;13.326;2023-05-27T06:50:16;1.33;;;1.00;;
29380;SDS011;16364;52.490;13.326;2023-05-27T06:52:41;3.27;;;1.20;;
29380;SDS011;16364;52.490;13.326;2023-05-27T06:55:07;2.00;;;1.10;;
29380;SDS011;16364;52.490;13.326;2023-05-27T06:57:32;1.97;;;1.37;;
29380;SDS011;16364;52.490;13.326;2023-05-27T06:59:58;2.63;;;1.40;;
29380;SDS011;16364;52.490;13.326;2023-05-27T07:02:23;1.30;;;1.17;;
29380;SDS011;16364;52.490;13.326;2023-05-27T07:04:49;2.40;;;1.40;;
29380;SDS011;16364;52.490;13.326;2023-05-27T07:07:15;4.20;;;1.10;;
29380;SDS011;16364;52.490;13.326;2023-05-27T07:09:40;1.27;;;1.00;;
29380;SDS011;16364;52.490;13.326;2023-05-27T07:12:09;1.57;;;1.00;;
29380;SDS011;16364;52.490;13.326;2023-05-27T07:14:35;2.40;;;1.10;;
29380;SDS011;16364;52.490;13.326;2023-05-27T07:17:01;1.40;;;1.10;;
29380;SDS011;16364;52.490;13.326;2023-05-27T07:19:26;1.03;;;0.90;;
29380;SDS011;16364;52.490;13.326;2023-05-27T07:21:53;2.53;;;1.00;;
29380;SDS011;16364;52.490;13.326;2023-05-27T07:24:18;1.17;;;0.80;;
29380;SDS011;16364;52.490;13.326;2023-05-27T07:26:46;3.07;;;1.00;;
29380;SDS011;16364;52.490;13.326;2023-05-27T07:29:11;1.70;;;1.37;;
29380;SDS011;16364;52.490;13.326;2023-05-27T07:31:37;2.03;;;0.97;;
29380;SDS011;16364;52.490;13.326;2023-05-27T07:34:02;0.93;;;0.87;;
29380;SDS011;16364;52.490;13.326;2023-05-27T07:36:27;1.20;;;0.87;;
29380;SDS011;16364;52.490;13.326;2023-05-27T07:38:52;1.00;;;0.77;;
29380;SDS011;16364;52.490;13.326;2023-05-27T07:41:19;1.53;;;1.00;;
29380;SDS011;16364;52.490;13.326;2023-05-27T07:43:45;2.53;;;1.23;;
29380;SDS011;16364;52.490;13.326;2023-05-27T07:46:11;1.30;;;0.90;;
29380;SDS011;16364;52.490;13.326;2023-05-27T07:48:36;1.83;;;0.70;;
29380;SDS011;16364;52.490;13.326;2023-05-27T07:51:02;1.00;;;0.90;;
29380;SDS011;16364;52.490;13.326;2023-05-27T07:53:27;1.33;;;1.00;;
29380;SDS011;16364;52.490;13.326;2023-05-27T07:55:53;1.90;;;0.90;;
29380;SDS011;16364;52.490;13.326;2023-05-27T07:58:18;1.63;;;0.90;;
29380;SDS011;16364;52.490;13.326;2023-05-27T08:00:43;1.37;;;0.80;;
29380;SDS011;16364;52.490;13.326;2023-05-27T08:03:10;1.20;;;0.90;;
29380;SDS011;16364;52.490;13.326;2023-05-27T08:05:35;2.07;;;0.90;;
29380;SDS011;16364;52.490;13.326;2023-05-27T08:08:01;1.10;;;0.90;;
29380;SDS011;16364;52.490;13.326;2023-05-27T08:10:26;0.97;;;0.80;;
29380;SDS011;16364;52.490;13.326;2023-05-27T08:12:52;0.90;;;0.80;;
29380;SDS011;16364;52.490;13.326;2023-05-27T08:15:17;1.40;;;0.87;;
29380;SDS011;16364;52.490;13.326;2023-05-27T08:17:45;1.37;;;0.90;;
29380;SDS011;16364;52.490;13.326;2023-05-27T08:20:10;1.53;;;0.90;;
29380;SDS011;16364;52.490;13.326;2023-05-27T08:22:36;2.53;;;1.00;;
29380;SDS011;16364;52.490;13.326;2023-05-27T08:25:01;3.40;;;1.10;;
29380;SDS011;16364;52.490;13.326;2023-05-27T08:27:48;1.97;;;1.20;;
29380;SDS011;16364;52.490;13.326;2023-05-27T08:30:13;2.03;;;0.90;;
29380;SDS011;16364;52.490;13.326;2023-05-27T08:32:40;1.40;;;1.00;;
29380;SDS011;16364;52.490;13.326;2023-05-27T08:35:06;1.30;;;0.90;;
29380;SDS011;16364;52.490;13.326;2023-05-27T08:37:31;6.07;;;1.20;;
29380;SDS011;16364;52.490;13.326;2023-05-27T08:39:58;1.67;;;1.13;;
29380;SDS011;16364;52.490;13.326;2023-05-27T08:42:26;1.53;;;0.90;;
29380;SDS011;16364;52.490;13.326;2023-05-27T08:44:55;1.90;;;1.07;;
29380;SDS011;16364;52.490;13.326;2023-05-27T08:47:21;1.07;;;0.97;;
29380;SDS011;16364;52.490;13.326;2023-05-27T08:49:46;2.13;;;0.87;;
29380;SDS011;16364;52.490;13.326;2023-05-27T08:52:11;3.50;;;1.57;;
29380;SDS011;16364;52.490;13.326;2023-05-27T08:54:39;0.90;;;0.73;;
29380;SDS011;16364;52.490;13.326;2023-05-27T08:57:06;1.00;;;0.83;;
29380;SDS011;16364;52.490;13.326;2023-05-27T08:59:35;1.20;;;0.87;;
29380;SDS011;16364;52.490;13.326;2023-05-27T09:02:01;2.40;;;1.10;;
29380;SDS011;16364;52.490;13.326;2023-05-27T09:04:27;2.33;;;1.00;;
29380;SDS011;16364;52.490;13.326;2023-05-27T09:06:53;2.27;;;1.00;;
29380;SDS011;16364;52.490;13.326;2023-05-27T09:09:19;1.17;;;0.87;;
29380;SDS011;16364;52.490;13.326;2023-05-27T09:11:45;1.67;;;0.90;;
29380;SDS011;16364;52.490;13.326;2023-05-27T09:14:23;1.93;;;1.00;;
29380;SDS011;16364;52.490;13.326;2023-05-27T09:16:48;1.63;;;1.07;;
29380;SDS011;16364;52.490;13.326;2023-05-27T09:19:17;1.87;;;0.90;;
29380;SDS011;16364;52.490;13.326;2023-05-27T09:21:42;1.60;;;1.27;;
29380;SDS011;16364;52.490;13.326;2023-05-27T09:24:09;1.20;;;1.00;;
29380;SDS011;16364;52.490;13.326;2023-05-27T09:26:35;1.90;;;1.20;;
29380;SDS011;16364;52.490;13.326;2023-05-27T09:29:00;4.00;;;1.20;;
29380;SDS011;16364;52.490;13.326;2023-05-27T09:31:28;1.53;;;0.90;;
29380;SDS011;16364;52.490;13.326;2023-05-27T09:33:53;1.03;;;0.80;;
29380;SDS011;16364;52.490;13.326;2023-05-27T09:36:21;1.73;;;1.03;;
29380;SDS011;16364;52.490;13.326;2023-05-27T09:38:47;1.27;;;1.03;;
29380;SDS011;16364;52.490;13.326;2023-05-27T09:41:13;1.77;;;1.20;;
29380;SDS011;16364;52.490;13.326;2023-05-27T09:43:38;1.10;;;1.00;;
29380;SDS011;16364;52.490;13.326;2023-05-27T09:46:07;1.80;;;1.00;;
29380;SDS011;16364;52.490;13.326;2023-05-27T09:48:34;4.00;;;1.43;;
29380;SDS011;16364;52.490;13.326;2023-05-27T09:51:02;2.03;;;1.00;;
29380;SDS011;16364;52.490;13.326;2023-05-27T09:53:28;1.57;;;1.37;;
29380;SDS011;16364;52.490;13.326;2023-05-27T09:55:54;2.10;;;0.93;;
29380;SDS011;16364;52.490;13.326;2023-05-27T09:58:20;2.37;;;1.10;;
29380;SDS011;16364;52.490;13.326;2023-05-27T10:00:46;1.97;;;1.17;;
29380;SDS011;16364;52.490;13.326;2023-05-27T10:03:12;1.93;;;1.00;;
29380;SDS011;16364;52.490;13.326;2023-05-27T10:05:38;1.10;;;1.00;;
29380;SDS011;16364;52.490;13.326;2023-05-27T10:08:04;1.37;;;1.20;;
29380;SDS011;16364;52.490;13.326;2023-05-27T10:10:29;1.13;;;1.00;;
29380;SDS011;16364;52.490;13.326;2023-05-27T10:12:55;1.70;;;1.13;;
29380;SDS011;16364;52.490;13.326;2023-05-27T10:15:28;4.40;;;1.37;;
29380;SDS011;16364;52.490;13.326;2023-05-27T10:20:37;1.40;;;1.10;;
29380;SDS011;16364;52.490;13.326;2023-05-27T10:25:48;1.90;;;1.33;;
29380;SDS011;16364;52.490;13.326;2023-05-27T10:28:23;2.83;;;1.23;;
29380;SDS011;16364;52.490;13.326;2023-05-27T10:30:49;1.23;;;1.10;;
29380;SDS011;16364;52.490;13.326;2023-05-27T10:33:14;1.10;;;1.00;;
29380;SDS011;16364;52.490;13.326;2023-05-27T10:35:43;1.90;;;1.30;;
29380;SDS011;16364;52.490;13.326;2023-05-27T10:38:18;4.00;;;1.33;;
29380;SDS011;16364;52.490;13.326;2023-05-27T10:40:46;1.67;;;0.97;;
29380;SDS011;16364;52.490;13.326;2023-05-27T10:43:18;1.50;;;1.00;;
29380;SDS011;16364;52.490;13.326;2023-05-27T10:45:43;1.57;;;1.00;;
29380;SDS011;16364;52.490;13.326;2023-05-27T10:48:18;1.33;;;1.10;;
29380;SDS011;16364;52.490;13.326;2023-05-27T10:50:50;1.47;;;1.00;;
29380;SDS011;16364;52.490;13.326;2023-05-27T10:53:18;1.33;;;1.00;;
29380;SDS011;16364;52.490;13.326;2023-05-27T10:55:43;1.40;;;1.20;;
29380;SDS011;16364;52.490;13.326;2023-05-27T10:58:09;1.10;;;1.00;;
29380;SDS011;16364;52.490;13.326;2023-05-27T11:00:35;1.50;;;1.27;;
29380;SDS011;16364;52.490;13.326;2023-05-27T11:03:01;1.60;;;1.10;;
29380;SDS011;16364;52.490;13.326;2023-05-27T11:05:27;1.13;;;1.00;;
29380;SDS011;16364;52.490;13.326;2023-05-27T11:07:53;1.30;;;1.00;;
29380;SDS011;16364;52.490;13.326;2023-05-27T11:10:18;2.17;;;1.30;;
29380;SDS011;16364;52.490;13.326;2023-05-27T11:12:43;2.20;;;1.30;;
29380;SDS011;16364;52.490;13.326;2023-05-27T11:15:10;1.80;;;1.30;;
29380;SDS011;16364;52.490;13.326;2023-05-27T11:17:35;1.53;;;1.10;;
29380;SDS011;16364;52.490;13.326;2023-05-27T11:20:01;1.73;;;1.33;;
29380;SDS011;16364;52.490;13.326;2023-05-27T11:22:28;1.17;;;1.00;;
29380;SDS011;16364;52.490;13.326;2023-05-27T11:27:21;2.17;;;1.27;;
29380;SDS011;16364;52.490;13.326;2023-05-27T11:29:51;1.30;;;1.20;;
29380;SDS011;16364;52.490;13.326;2023-05-27T11:32:17;1.30;;;1.10;;
29380;SDS011;16364;52.490;13.326;2023-05-27T11:34:43;1.80;;;1.20;;
29380;SDS011;16364;52.490;13.326;2023-05-27T11:37:08;2.80;;;2.40;;
29380;SDS011;16364;52.490;13.326;2023-05-27T11:39:33;5.47;;;4.60;;
29380;SDS011;16364;52.490;13.326;2023-05-27T11:41:59;1.73;;;1.63;;
29380;SDS011;16364;52.490;13.326;2023-05-27T11:44:24;1.47;;;1.37;;
29380;SDS011;16364;52.490;13.326;2023-05-27T11:46:50;1.20;;;1.10;;
29380;SDS011;16364;52.490;13.326;2023-05-27T11:49:17;21.47;;;2.03;;
29380;SDS011;16364;52.490;13.326;2023-05-27T11:51:43;4.07;;;1.60;;
29380;SDS011;16364;52.490;13.326;2023-05-27T11:54:19;3.60;;;1.50;;
29380;SDS011;16364;52.490;13.326;2023-05-27T11:56:45;1.40;;;1.10;;
29380;SDS011;16364;52.490;13.326;2023-05-27T11:59:10;2.23;;;1.50;;
29380;SDS011;16364;52.490;13.326;2023-05-27T12:01:36;2.30;;;1.30;;
29380;SDS011;16364;52.490;13.326;2023-05-27T12:04:01;2.85;;;1.30;;
29380;SDS011;16364;52.490;13.326;2023-05-27T12:06:27;2.63;;;1.40;;
29380;SDS011;16364;52.490;13.326;2023-05-27T12:08:52;2.00;;;1.50;;
29380;SDS011;16364;52.490;13.326;2023-05-27T12:11:18;6.20;;;1.80;;
29380;SDS011;16364;52.490;13.326;2023-05-27T12:13:43;2.40;;;1.40;;
29380;SDS011;16364;52.490;13.326;2023-05-27T12:16:09;2.40;;;1.60;;
29380;SDS011;16364;52.490;13.326;2023-05-27T12:18:35;2.00;;;1.70;;
29380;SDS011;16364;52.490;13.326;2023-05-27T12:21:01;1.60;;;1.40;;
29380;SDS011;16364;52.490;13.326;2023-05-27T12:23:27;1.20;;;1.10;;
29380;SDS011;16364;52.490;13.326;2023-05-27T12:25:52;1.43;;;1.33;;
29380;SDS011;16364;52.490;13.326;2023-05-27T12:28:17;1.50;;;1.20;;
29380;SDS011;16364;52.490;13.326;2023-05-27T12:30:42;1.40;;;1.30;;
29380;SDS011;16364;52.490;13.326;2023-05-27T12:33:08;1.97;;;1.20;;
29380;SDS011;16364;52.490;13.326;2023-05-27T12:35:33;1.80;;;1.23;;
29380;SDS011;16364;52.490;13.326;2023-05-27T12:38:01;1.40;;;1.30;;
29380;SDS011;16364;52.490;13.326;2023-05-27T12:40:26;1.50;;;1.40;;
29380;SDS011;16364;52.490;13.326;2023-05-27T12:42:52;2.20;;;2.00;;
29380;SDS011;16364;52.490;13.326;2023-05-27T12:45:17;3.93;;;1.60;;
29380;SDS011;16364;52.490;13.326;2023-05-27T12:47:42;3.30;;;2.60;;
29380;SDS011;16364;52.490;13.326;2023-05-27T12:50:08;3.63;;;1.93;;
29380;SDS011;16364;52.490;13.326;2023-05-27T12:52:33;1.90;;;1.50;;
29380;SDS011;16364;52.490;13.326;2023-05-27T12:55:00;2.43;;;1.40;;
29380;SDS011;16364;52.490;13.326;2023-05-27T12:57:25;2.27;;;1.50;;
29380;SDS011;16364;52.490;13.326;2023-05-27T12:59:51;1.83;;;1.43;;
29380;SDS011;16364;52.490;13.326;2023-05-27T13:02:16;2.87;;;1.73;;
29380;SDS011;16364;52.490;13.326;2023-05-27T13:04:41;2.23;;;1.50;;
29380;SDS011;16364;52.490;13.326;2023-05-27T13:07:09;1.43;;;1.20;;
29380;SDS011;16364;52.490;13.326;2023-05-27T13:09:34;1.37;;;1.27;;
29380;SDS011;16364;52.490;13.326;2023-05-27T13:12:00;1.97;;;1.43;;
29380;SDS011;16364;52.490;13.326;2023-05-27T13:14:25;1.97;;;1.77;;
29380;SDS011;16364;52.490;13.326;2023-05-27T13:16:50;1.33;;;1.23;;
29380;SDS011;16364;52.490;13.326;2023-05-27T13:19:15;1.50;;;1.40;;
29380;SDS011;16364;52.490;13.326;2023-05-27T13:21:41;1.73;;;1.30;;
29380;SDS011;16364;52.490;13.326;2023-05-27T13:24:06;1.20;;;1.10;;
29380;SDS011;16364;52.490;13.326;2023-05-27T13:26:32;1.30;;;1.20;;
29380;SDS011;16364;52.490;13.326;2023-05-27T13:28:58;3.63;;;1.23;;
29380;SDS011;16364;52.490;13.326;2023-05-27T13:31:23;1.30;;;1.03;;
29380;SDS011;16364;52.490;13.326;2023-05-27T13:33:48;1.40;;;1.23;;
29380;SDS011;16364;52.490;13.326;2023-05-27T13:36:13;1.33;;;1.20;;
29380;SDS011;16364;52.490;13.326;2023-05-27T13:38:39;3.10;;;2.00;;
29380;SDS011;16364;52.490;13.326;2023-05-27T13:41:04;2.30;;;1.77;;
29380;SDS011;16364;52.490;13.326;2023-05-27T13:43:29;1.70;;;1.37;;
29380;SDS011;16364;52.490;13.326;2023-05-27T13:45:55;1.37;;;1.27;;
29380;SDS011;16364;52.490;13.326;2023-05-27T13:48:20;1.70;;;1.30;;
29380;SDS011;16364;52.490;13.326;2023-05-27T13:50:45;1.30;;;1.20;;
29380;SDS011;16364;52.490;13.326;2023-05-27T13:53:10;2.60;;;1.30;;
29380;SDS011;16364;52.490;13.326;2023-05-27T13:55:36;1.97;;;1.30;;
29380;SDS011;16364;52.490;13.326;2023-05-27T13:58:01;1.87;;;1.63;;
29380;SDS011;16364;52.490;13.326;2023-05-27T14:00:26;1.10;;;1.00;;
29380;SDS011;16364;52.490;13.326;2023-05-27T14:02:51;1.83;;;1.30;;
29380;SDS011;16364;52.490;13.326;2023-05-27T14:05:19;1.83;;;1.47;;
29380;SDS011;16364;52.490;13.326;2023-05-27T14:07:44;1.93;;;1.27;;
29380;SDS011;16364;52.490;13.326;2023-05-27T14:10:12;2.30;;;1.07;;
29380;SDS011;16364;52.490;13.326;2023-05-27T14:12:37;1.83;;;1.30;;
29380;SDS011;16364;52.490;13.326;2023-05-27T14:15:03;1.57;;;1.47;;
29380;SDS011;16364;52.490;13.326;2023-05-27T14:17:28;1.80;;;1.57;;
29380;SDS011;16364;52.490;13.326;2023-05-27T14:19:53;2.37;;;1.30;;
29380;SDS011;16364;52.490;13.326;2023-05-27T14:22:19;1.80;;;1.40;;
29380;SDS011;16364;52.490;13.326;2023-05-27T14:24:44;1.60;;;1.33;;
29380;SDS011;16364;52.490;13.326;2023-05-27T14:27:10;1.20;;;1.10;;
29380;SDS011;16364;52.490;13.326;2023-05-27T14:29:35;2.87;;;1.30;;
29380;SDS011;16364;52.490;13.326;2023-05-27T14:32:01;2.20;;;1.10;;
29380;SDS011;16364;52.490;13.326;2023-05-27T14:34:27;2.50;;;1.50;;
29380;SDS011;16364;52.490;13.326;2023-05-27T14:36:52;1.90;;;1.20;;